sensor_id;sensor_type;location;lat;lon;timestamp;pressure;altitude;pressure_sealevel;temperature;humidity
77112;BME280;66064;50.226;14.344;2023-04-01T00:00:59;97805.31;;;9.44;75.44
77112;BME280;66064;50.226;14.344;2023-04-01T00:03:26;97801.84;;;9.39;75.49
77112;BME280;66064;50.226;14.344;2023-04-01T00:05:55;97808.97;;;9.34;76.21
77112;BME280;66064;50.226;14.344;2023-04-01T00:08:21;97806.38;;;9.31;76.29
77112;BME280;66064;50.226;14.344;2023-04-01T00:10:48;97809.00;;;9.31;76.35
77112;BME280;66064;50.226;14.344;2023-04-01T00:13:15;97805.63;;;9.20;76.76
77112;BME280;66064;50.226;14.344;2023-04-01T00:15:42;97807.38;;;9.21;76.70
77112;BME280;66064;50.226;14.344;2023-04-01T00:18:09;97801.97;;;9.27;76.23
77112;BME280;66064;50.226;14.344;2023-04-01T00:20:36;97803.81;;;9.25;76.46
77112;BME280;66064;50.226;14.344;2023-04-01T00:23:03;97809.91;;;9.30;75.62
77112;BME280;66064;50.226;14.344;2023-04-01T00:25:31;97801.16;;;9.25;76.25
77112;BME280;66064;50.226;14.344;2023-04-01T00:27:57;97805.50;;;9.27;76.03
77112;BME280;66064;50.226;14.344;2023-04-01T00:30:23;97801.06;;;9.31;76.12
77112;BME280;66064;50.226;14.344;2023-04-01T00:32:53;97806.53;;;9.19;76.56
77112;BME280;66064;50.226;14.344;2023-04-01T00:35:20;97802.16;;;9.15;77.15
77112;BME280;66064;50.226;14.344;2023-04-01T00:37:47;97809.22;;;9.14;76.45
77112;BME280;66064;50.226;14.344;2023-04-01T00:40:32;97811.91;;;9.12;76.80
77112;BME280;66064;50.226;14.344;2023-04-01T00:42:59;97815.44;;;9.13;77.05
77112;BME280;66064;50.226;14.344;2023-04-01T00:45:35;97810.13;;;9.11;77.01
77112;BME280;66064;50.226;14.344;2023-04-01T00:48:07;97804.13;;;8.97;78.32
77112;BME280;66064;50.226;14.344;2023-04-01T00:50:35;97804.13;;;8.97;77.95
77112;BME280;66064;50.226;14.344;2023-04-01T00:53:03;97801.44;;;8.99;77.90
77112;BME280;66064;50.226;14.344;2023-04-01T00:55:32;97813.88;;;8.94;77.84
77112;BME280;66064;50.226;14.344;2023-04-01T00:57:59;97812.22;;;8.87;78.43
77112;BME280;66064;50.226;14.344;2023-04-01T01:00:27;97800.84;;;8.74;78.70
77112;BME280;66064;50.226;14.344;2023-04-01T01:02:53;97806.16;;;8.74;78.66
77112;BME280;66064;50.226;14.344;2023-04-01T01:05:52;97797.31;;;8.75;78.87
77112;BME280;66064;50.226;14.344;2023-04-01T01:11:05;97801.72;;;8.74;79.25
77112;BME280;66064;50.226;14.344;2023-04-01T01:13:45;97807.84;;;8.78;78.92
77112;BME280;66064;50.226;14.344;2023-04-01T01:16:27;97803.50;;;8.75;79.39
77112;BME280;66064;50.226;14.344;2023-04-01T01:19:06;97804.28;;;8.82;78.74
77112;BME280;66064;50.226;14.344;2023-04-01T01:21:52;97809.63;;;8.79;79.32
77112;BME280;66064;50.226;14.344;2023-04-01T01:24:39;97809.63;;;8.79;78.74
77112;BME280;66064;50.226;14.344;2023-04-01T01:27:11;97806.03;;;8.85;78.65
77112;BME280;66064;50.226;14.344;2023-04-01T01:30:00;97810.56;;;8.75;78.92
77112;BME280;66064;50.226;14.344;2023-04-01T01:33:05;97812.34;;;8.74;78.76
77112;BME280;66064;50.226;14.344;2023-04-01T01:35:48;97802.66;;;8.72;79.90
77112;BME280;66064;50.226;14.344;2023-04-01T01:38:17;97806.09;;;8.77;79.18
77112;BME280;66064;50.226;14.344;2023-04-01T01:40:48;97812.28;;;8.77;79.11
77112;BME280;66064;50.226;14.344;2023-04-01T01:43:21;97803.44;;;8.77;78.80
77112;BME280;66064;50.226;14.344;2023-04-01T01:45:52;97803.50;;;8.75;79.15
77112;BME280;66064;50.226;14.344;2023-04-01T01:48:23;97811.34;;;8.83;78.77
77112;BME280;66064;50.226;14.344;2023-04-01T01:50:51;97810.50;;;8.80;79.68
77112;BME280;66064;50.226;14.344;2023-04-01T01:53:19;97813.94;;;8.91;78.29
77112;BME280;66064;50.226;14.344;2023-04-01T01:55:46;97813.88;;;8.95;78.74
77112;BME280;66064;50.226;14.344;2023-04-01T02:00:46;97808.56;;;8.95;78.52
77112;BME280;66064;50.226;14.344;2023-04-01T02:03:17;97809.50;;;8.91;78.65
77112;BME280;66064;50.226;14.344;2023-04-01T02:05:46;97805.09;;;8.90;79.72
77112;BME280;66064;50.226;14.344;2023-04-01T02:08:31;97817.50;;;8.87;79.84
77112;BME280;66064;50.226;14.344;2023-04-01T02:11:03;97813.13;;;8.83;80.08
77112;BME280;66064;50.226;14.344;2023-04-01T02:13:52;97815.78;;;8.81;80.42
77112;BME280;66064;50.226;14.344;2023-04-01T02:16:24;97814.91;;;8.81;80.17
77112;BME280;66064;50.226;14.344;2023-04-01T02:18:53;97815.88;;;8.75;80.25
77112;BME280;66064;50.226;14.344;2023-04-01T02:21:26;97812.28;;;8.77;80.62
77112;BME280;66064;50.226;14.344;2023-04-01T02:23:56;97818.47;;;8.78;80.58
77112;BME280;66064;50.226;14.344;2023-04-01T02:26:24;97814.88;;;8.85;79.92
77112;BME280;66064;50.226;14.344;2023-04-01T02:28:54;97811.41;;;8.77;80.65
77112;BME280;66064;50.226;14.344;2023-04-01T02:31:22;97806.09;;;8.77;80.81
77112;BME280;66064;50.226;14.344;2023-04-01T02:33:49;97811.38;;;8.80;80.26
77112;BME280;66064;50.226;14.344;2023-04-01T02:36:17;97815.78;;;8.81;79.88
77112;BME280;66064;50.226;14.344;2023-04-01T02:38:45;97814.03;;;8.82;79.57
77112;BME280;66064;50.226;14.344;2023-04-01T02:41:12;97818.47;;;8.78;80.14
77112;BME280;66064;50.226;14.344;2023-04-01T02:43:39;97812.25;;;8.82;79.55
77112;BME280;66064;50.226;14.344;2023-04-01T02:46:06;97825.47;;;8.87;79.64
77112;BME280;66064;50.226;14.344;2023-04-01T02:48:32;97822.00;;;8.78;80.30
77112;BME280;66064;50.226;14.344;2023-04-01T02:50:58;97825.47;;;8.85;79.83
77112;BME280;66064;50.226;14.344;2023-04-01T02:53:25;97821.91;;;8.89;79.47
77112;BME280;66064;50.226;14.344;2023-04-01T02:55:58;97827.28;;;8.83;79.65
77112;BME280;66064;50.226;14.344;2023-04-01T02:58:32;97827.25;;;8.86;79.89
77112;BME280;66064;50.226;14.344;2023-04-01T03:00:59;97834.31;;;8.87;79.82
77112;BME280;66064;50.226;14.344;2023-04-01T03:03:26;97839.63;;;8.84;79.43
77112;BME280;66064;50.226;14.344;2023-04-01T03:05:53;97836.03;;;8.91;79.28
77112;BME280;66064;50.226;14.344;2023-04-01T03:08:22;97838.63;;;8.94;78.60
77112;BME280;66064;50.226;14.344;2023-04-01T03:10:48;97848.34;;;8.95;78.97
77112;BME280;66064;50.226;14.344;2023-04-01T03:13:14;97837.72;;;8.98;78.42
77112;BME280;66064;50.226;14.344;2023-04-01T03:15:41;97846.50;;;9.03;78.18
77112;BME280;66064;50.226;14.344;2023-04-01T03:18:07;97853.59;;;9.01;78.61
77112;BME280;66064;50.226;14.344;2023-04-01T03:20:34;97843.91;;;8.97;78.06
77112;BME280;66064;50.226;14.344;2023-04-01T03:23:01;97843.91;;;8.97;78.84
77112;BME280;66064;50.226;14.344;2023-04-01T03:25:28;97846.50;;;9.03;77.93
77112;BME280;66064;50.226;14.344;2023-04-01T03:27:56;97845.63;;;9.03;77.97
77112;BME280;66064;50.226;14.344;2023-04-01T03:30:26;97844.75;;;9.02;78.01
77112;BME280;66064;50.226;14.344;2023-04-01T03:32:52;97854.47;;;9.02;77.63
77112;BME280;66064;50.226;14.344;2023-04-01T03:35:18;97855.38;;;8.99;78.21
77112;BME280;66064;50.226;14.344;2023-04-01T03:37:47;97852.69;;;9.04;78.03
77112;BME280;66064;50.226;14.344;2023-04-01T03:40:14;97857.13;;;9.03;77.67
77112;BME280;66064;50.226;14.344;2023-04-01T03:42:40;97860.72;;;8.98;78.25
77112;BME280;66064;50.226;14.344;2023-04-01T03:45:07;97859.81;;;9.00;78.29
77112;BME280;66064;50.226;14.344;2023-04-01T03:47:33;97857.13;;;9.02;78.02
77112;BME280;66064;50.226;14.344;2023-04-01T03:49:59;97859.84;;;8.94;78.09
77112;BME280;66064;50.226;14.344;2023-04-01T03:52:26;97858.13;;;8.92;78.32
77112;BME280;66064;50.226;14.344;2023-04-01T03:54:52;97867.00;;;8.91;78.15
77112;BME280;66064;50.226;14.344;2023-04-01T03:57:19;97863.34;;;8.99;77.78
77112;BME280;66064;50.226;14.344;2023-04-01T03:59:47;97874.09;;;8.89;78.34
77112;BME280;66064;50.226;14.344;2023-04-01T04:02:13;97867.94;;;8.82;78.39
77112;BME280;66064;50.226;14.344;2023-04-01T04:04:39;97879.53;;;8.75;79.43
77112;BME280;66064;50.226;14.344;2023-04-01T04:07:07;97875.94;;;8.79;79.01
77112;BME280;66064;50.226;14.344;2023-04-01T04:09:33;97878.66;;;8.74;78.69
77112;BME280;66064;50.226;14.344;2023-04-01T04:12:00;97879.53;;;8.75;78.45
77112;BME280;66064;50.226;14.344;2023-04-01T04:14:26;97883.06;;;8.74;78.41
77112;BME280;66064;50.226;14.344;2023-04-01T04:16:53;97882.09;;;8.81;78.43
77112;BME280;66064;50.226;14.344;2023-04-01T04:19:20;97891.84;;;8.77;78.66
77112;BME280;66064;50.226;14.344;2023-04-01T04:21:46;97883.06;;;8.75;78.42
77112;BME280;66064;50.226;14.344;2023-04-01T04:24:12;97890.13;;;8.76;78.50
77112;BME280;66064;50.226;14.344;2023-04-01T04:26:38;97896.34;;;8.71;78.41
77112;BME280;66064;50.226;14.344;2023-04-01T04:29:05;97892.78;;;8.75;77.81
77112;BME280;66064;50.226;14.344;2023-04-01T04:31:32;97891.97;;;8.65;78.45
77112;BME280;66064;50.226;14.344;2023-04-01T04:33:59;97892.72;;;8.78;78.04
77112;BME280;66064;50.226;14.344;2023-04-01T04:36:27;97894.56;;;8.76;78.19
77112;BME280;66064;50.226;14.344;2023-04-01T04:38:53;97895.44;;;8.73;78.30
77112;BME280;66064;50.226;14.344;2023-04-01T04:41:20;97899.84;;;8.76;78.04
77112;BME280;66064;50.226;14.344;2023-04-01T04:43:53;97898.94;;;8.77;78.17
77112;BME280;66064;50.226;14.344;2023-04-01T04:46:19;97888.38;;;8.72;77.91
77112;BME280;66064;50.226;14.344;2023-04-01T04:48:46;97904.31;;;8.71;77.61
77112;BME280;66064;50.226;14.344;2023-04-01T04:51:14;97895.50;;;8.67;77.78
77112;BME280;66064;50.226;14.344;2023-04-01T04:53:41;97900.81;;;8.64;78.24
77112;BME280;66064;50.226;14.344;2023-04-01T04:56:08;97905.09;;;8.79;77.08
77112;BME280;66064;50.226;14.344;2023-04-01T04:58:35;97905.06;;;8.85;76.41
77112;BME280;66064;50.226;14.344;2023-04-01T05:01:09;97904.19;;;8.85;76.62
77112;BME280;66064;50.226;14.344;2023-04-01T05:03:37;97897.06;;;8.88;76.22
77112;BME280;66064;50.226;14.344;2023-04-01T05:06:04;97904.19;;;8.85;76.38
77112;BME280;66064;50.226;14.344;2023-04-01T05:08:30;97906.88;;;8.77;77.05
77112;BME280;66064;50.226;14.344;2023-04-01T05:10:59;97910.41;;;8.79;76.30
77112;BME280;66064;50.226;14.344;2023-04-01T05:13:25;97915.66;;;8.85;76.77
77112;BME280;66064;50.226;14.344;2023-04-01T05:15:52;97914.81;;;8.80;77.03
77112;BME280;66064;50.226;14.344;2023-04-01T05:18:26;97918.38;;;8.79;77.51
77112;BME280;66064;50.226;14.344;2023-04-01T05:20:54;97917.44;;;8.83;76.97
77112;BME280;66064;50.226;14.344;2023-04-01T05:23:21;97913.88;;;8.87;76.78
77112;BME280;66064;50.226;14.344;2023-04-01T05:25:48;97913.91;;;8.86;77.09
77112;BME280;66064;50.226;14.344;2023-04-01T05:28:15;97925.38;;;8.86;77.20
77112;BME280;66064;50.226;14.344;2023-04-01T05:30:43;97925.31;;;8.94;76.82
77112;BME280;66064;50.226;14.344;2023-04-01T05:33:10;97927.03;;;8.99;76.23
77112;BME280;66064;50.226;14.344;2023-04-01T05:35:36;97915.47;;;9.06;76.55
77112;BME280;66064;50.226;14.344;2023-04-01T05:38:04;97926.13;;;9.00;76.24
77112;BME280;66064;50.226;14.344;2023-04-01T05:40:31;97924.25;;;9.10;76.02
77112;BME280;66064;50.226;14.344;2023-04-01T05:42:58;97919.00;;;9.08;76.50
77112;BME280;66064;50.226;14.344;2023-04-01T05:45:25;97918.06;;;9.11;76.74
77112;BME280;66064;50.226;14.344;2023-04-01T05:47:51;97911.00;;;9.10;76.82
77112;BME280;66064;50.226;14.344;2023-04-01T05:50:18;97913.69;;;9.08;77.27
77112;BME280;66064;50.226;14.344;2023-04-01T05:52:44;97908.31;;;9.11;77.29
77112;BME280;66064;50.226;14.344;2023-04-01T05:55:11;97915.31;;;9.22;76.40
77112;BME280;66064;50.226;14.344;2023-04-01T05:57:37;97915.31;;;9.20;76.39
77112;BME280;66064;50.226;14.344;2023-04-01T06:00:05;97918.75;;;9.30;75.64
77112;BME280;66064;50.226;14.344;2023-04-01T06:02:32;97922.28;;;9.30;76.06
77112;BME280;66064;50.226;14.344;2023-04-01T06:05:22;97918.59;;;9.42;75.44
77112;BME280;66064;50.226;14.344;2023-04-01T06:07:55;97928.28;;;9.47;75.03
77112;BME280;66064;50.226;14.344;2023-04-01T06:19:58;97927.03;;;9.77;74.17
77112;BME280;66064;50.226;14.344;2023-04-01T06:37:31;97936.00;;;10.92;70.42
77112;BME280;66064;50.226;14.344;2023-04-01T06:40:05;97938.78;;;10.85;69.92
77112;BME280;66064;50.226;14.344;2023-04-01T06:48:32;97939.59;;;10.89;69.83
77112;BME280;66064;50.226;14.344;2023-04-01T06:56:21;97950.19;;;10.92;69.81
77112;BME280;66064;50.226;14.344;2023-04-01T06:59:04;97947.50;;;10.94;69.68
77112;BME280;66064;50.226;14.344;2023-04-01T07:01:38;97954.00;;;10.76;70.66
77112;BME280;66064;50.226;14.344;2023-04-01T07:04:11;97949.72;;;10.67;70.22
77112;BME280;66064;50.226;14.344;2023-04-01T07:09:16;97949.56;;;10.76;73.07
77112;BME280;66064;50.226;14.344;2023-04-01T07:11:45;97951.72;;;10.53;73.38
77112;BME280;66064;50.226;14.344;2023-04-01T07:14:25;97948.84;;;10.67;73.87
77112;BME280;66064;50.226;14.344;2023-04-01T07:22:33;97946.03;;;10.14;75.62
77112;BME280;66064;50.226;14.344;2023-04-01T07:27:45;97952.22;;;10.20;75.29
77112;BME280;66064;50.226;14.344;2023-04-01T07:30:22;97952.38;;;10.06;75.39
77112;BME280;66064;50.226;14.344;2023-04-01T07:33:15;97957.31;;;10.33;76.26
77112;BME280;66064;50.226;14.344;2023-04-01T07:36:03;97957.13;;;10.45;74.81
77112;BME280;66064;50.226;14.344;2023-04-01T07:44:23;97958.97;;;10.97;71.67
77112;BME280;66064;50.226;14.344;2023-04-01T07:54:57;97961.63;;;10.99;71.38
77112;BME280;66064;50.226;14.344;2023-04-01T07:57:44;97961.84;;;11.36;70.60
77112;BME280;66064;50.226;14.344;2023-04-01T08:01:05;97967.59;;;11.61;68.17
77112;BME280;66064;50.226;14.344;2023-04-01T08:04:00;97975.28;;;11.77;67.26
77112;BME280;66064;50.226;14.344;2023-04-01T08:10:09;97964.50;;;14.30;59.87
77112;BME280;66064;50.226;14.344;2023-04-01T08:15:28;97957.44;;;14.59;56.35
77112;BME280;66064;50.226;14.344;2023-04-01T08:20:39;97969.19;;;14.24;57.04
77112;BME280;66064;50.226;14.344;2023-04-01T08:23:19;97968.56;;;15.01;54.73
77112;BME280;66064;50.226;14.344;2023-04-01T08:28:41;97966.97;;;13.78;57.57
77112;BME280;66064;50.226;14.344;2023-04-01T08:31:31;97963.50;;;15.45;53.11
77112;BME280;66064;50.226;14.344;2023-04-01T08:34:02;97973.34;;;14.91;53.73
77112;BME280;66064;50.226;14.344;2023-04-01T08:36:43;97965.06;;;14.71;53.66
77112;BME280;66064;50.226;14.344;2023-04-01T08:39:14;97965.06;;;14.99;53.74
77112;BME280;66064;50.226;14.344;2023-04-01T08:42:10;97972.31;;;14.95;55.14
77112;BME280;66064;50.226;14.344;2023-04-01T08:45:14;97967.06;;;15.19;53.85
77112;BME280;66064;50.226;14.344;2023-04-01T08:47:50;97951.91;;;16.65;51.65
77112;BME280;66064;50.226;14.344;2023-04-01T08:50:49;97947.50;;;18.30;45.89
77112;BME280;66064;50.226;14.344;2023-04-01T09:01:33;97944.34;;;18.59;44.60
77112;BME280;66064;50.226;14.344;2023-04-01T09:13:05;97960.19;;;19.39;43.00
77112;BME280;66064;50.226;14.344;2023-04-01T09:36:03;97953.22;;;17.41;46.48
77112;BME280;66064;50.226;14.344;2023-04-01T09:41:40;97973.16;;;16.71;47.86
77112;BME280;66064;50.226;14.344;2023-04-01T09:44:34;97963.78;;;15.88;49.07
77112;BME280;66064;50.226;14.344;2023-04-01T09:50:20;97957.78;;;14.76;52.35
77112;BME280;66064;50.226;14.344;2023-04-01T10:34:55;97957.44;;;15.66;48.98
77112;BME280;66064;50.226;14.344;2023-04-01T10:49:05;97937.66;;;21.96;34.66
77112;BME280;66064;50.226;14.344;2023-04-01T11:03:39;97945.00;;;22.24;33.52
77112;BME280;66064;50.226;14.344;2023-04-01T11:25:48;97933.84;;;22.00;32.66
77112;BME280;66064;50.226;14.344;2023-04-01T11:44:46;97957.91;;;19.66;39.87
77112;BME280;66064;50.226;14.344;2023-04-01T12:01:46;97983.50;;;15.61;48.07
77112;BME280;66064;50.226;14.344;2023-04-01T12:12:46;97982.09;;;16.24;46.04
77112;BME280;66064;50.226;14.344;2023-04-01T12:15:36;97976.28;;;16.13;46.09
77112;BME280;66064;50.226;14.344;2023-04-01T12:18:31;97984.94;;;16.67;46.48
77112;BME280;66064;50.226;14.344;2023-04-01T12:28:08;97971.72;;;17.70;45.83
77112;BME280;66064;50.226;14.344;2023-04-01T12:33:31;97986.06;;;17.91;44.10
77112;BME280;66064;50.226;14.344;2023-04-01T12:42:14;97989.94;;;16.76;46.94
77112;BME280;66064;50.226;14.344;2023-04-01T12:50:33;97988.50;;;19.30;39.70
77112;BME280;66064;50.226;14.344;2023-04-01T12:56:03;97993.66;;;18.61;40.82
77112;BME280;66064;50.226;14.344;2023-04-01T13:01:53;98001.13;;;17.75;42.43
77112;BME280;66064;50.226;14.344;2023-04-01T13:12:40;98007.31;;;15.17;49.80
77112;BME280;66064;50.226;14.344;2023-04-01T13:18:05;97999.53;;;17.27;44.98
77112;BME280;66064;50.226;14.344;2023-04-01T13:21:08;97987.19;;;17.65;44.13
77112;BME280;66064;50.226;14.344;2023-04-01T13:29:47;97988.34;;;17.58;44.72
77112;BME280;66064;50.226;14.344;2023-04-01T13:38:20;97987.63;;;15.96;47.19
77112;BME280;66064;50.226;14.344;2023-04-01T13:43:58;97997.75;;;15.36;49.65
77112;BME280;66064;50.226;14.344;2023-04-01T13:46:35;97999.69;;;15.31;49.60
77112;BME280;66064;50.226;14.344;2023-04-01T13:49:29;97998.88;;;15.29;50.16
77112;BME280;66064;50.226;14.344;2023-04-01T13:52:08;98004.75;;;15.40;50.48
77112;BME280;66064;50.226;14.344;2023-04-01T13:55:00;98006.63;;;15.11;50.66
77112;BME280;66064;50.226;14.344;2023-04-01T14:00:35;97992.47;;;15.33;49.17
77112;BME280;66064;50.226;14.344;2023-04-01T14:06:28;98009.97;;;14.61;58.55
77112;BME280;66064;50.226;14.344;2023-04-01T14:25:33;97991.41;;;15.65;54.02
77112;BME280;66064;50.226;14.344;2023-04-01T14:42:45;98015.75;;;14.48;54.05
77112;BME280;66064;50.226;14.344;2023-04-01T14:51:02;98020.53;;;14.06;56.19
77112;BME280;66064;50.226;14.344;2023-04-01T14:53:33;98020.25;;;14.15;55.62
77112;BME280;66064;50.226;14.344;2023-04-01T14:56:02;98020.59;;;14.64;55.35
77112;BME280;66064;50.226;14.344;2023-04-01T14:59:01;98020.38;;;15.00;53.97
77112;BME280;66064;50.226;14.344;2023-04-01T15:25:00;98050.03;;;13.70;57.43
77112;BME280;66064;50.226;14.344;2023-04-01T15:30:28;98044.31;;;13.84;57.28
77112;BME280;66064;50.226;14.344;2023-04-01T15:33:28;98038.88;;;13.87;58.10
77112;BME280;66064;50.226;14.344;2023-04-01T15:36:28;98038.81;;;13.90;56.46
77112;BME280;66064;50.226;14.344;2023-04-01T15:39:14;98042.16;;;13.96;57.00
77112;BME280;66064;50.226;14.344;2023-04-01T15:50:18;98057.88;;;14.10;55.04
77112;BME280;66064;50.226;14.344;2023-04-01T15:55:41;98072.41;;;13.66;56.56
77112;BME280;66064;50.226;14.344;2023-04-01T16:00:53;98073.19;;;13.36;57.73
77112;BME280;66064;50.226;14.344;2023-04-01T16:06:34;98072.13;;;13.04;59.76
77112;BME280;66064;50.226;14.344;2023-04-01T16:09:13;98078.59;;;12.94;59.07
77112;BME280;66064;50.226;14.344;2023-04-01T16:20:02;98084.38;;;12.74;58.95
77112;BME280;66064;50.226;14.344;2023-04-01T16:22:52;98093.75;;;12.52;59.29
77112;BME280;66064;50.226;14.344;2023-04-01T16:31:14;98093.19;;;12.36;61.21
77112;BME280;66064;50.226;14.344;2023-04-01T16:37:10;98101.22;;;12.35;62.15
77112;BME280;66064;50.226;14.344;2023-04-01T16:43:05;98110.78;;;12.46;60.43
77112;BME280;66064;50.226;14.344;2023-04-01T16:48:22;98108.63;;;12.19;59.90
77112;BME280;66064;50.226;14.344;2023-04-01T16:51:00;98124.22;;;11.96;60.96
77112;BME280;66064;50.226;14.344;2023-04-01T16:53:45;98125.09;;;11.96;60.85
77112;BME280;66064;50.226;14.344;2023-04-01T16:56:23;98122.69;;;11.81;61.93
77112;BME280;66064;50.226;14.344;2023-04-01T17:01:30;98128.50;;;11.52;62.42
77112;BME280;66064;50.226;14.344;2023-04-01T17:12:35;98147.53;;;11.25;64.33
77112;BME280;66064;50.226;14.344;2023-04-01T17:15:18;98151.25;;;11.16;64.45
77112;BME280;66064;50.226;14.344;2023-04-01T17:21:03;98164.88;;;10.93;66.45
77112;BME280;66064;50.226;14.344;2023-04-01T17:24:26;98169.41;;;10.85;67.27
77112;BME280;66064;50.226;14.344;2023-04-01T17:29:59;98167.84;;;10.70;68.21
77112;BME280;66064;50.226;14.344;2023-04-01T17:33:07;98175.84;;;10.67;68.98
77112;BME280;66064;50.226;14.344;2023-04-01T17:35:58;98178.56;;;10.63;69.32
77112;BME280;66064;50.226;14.344;2023-04-01T18:00:58;98211.72;;;10.30;72.38
77112;BME280;66064;50.226;14.344;2023-04-01T18:20:33;98231.28;;;10.24;73.75
77112;BME280;66064;50.226;14.344;2023-04-01T18:23:14;98230.44;;;10.21;73.48
77112;BME280;66064;50.226;14.344;2023-04-01T18:25:47;98230.41;;;10.24;73.20
77112;BME280;66064;50.226;14.344;2023-04-01T18:31:17;98241.09;;;10.19;74.15
77112;BME280;66064;50.226;14.344;2023-04-01T18:34:16;98239.31;;;10.16;73.78
77112;BME280;66064;50.226;14.344;2023-04-01T18:36:51;98247.31;;;10.12;74.53
77112;BME280;66064;50.226;14.344;2023-04-01T18:39:41;98249.09;;;10.10;74.34
77112;BME280;66064;50.226;14.344;2023-04-01T18:44:50;98261.59;;;10.02;74.78
77112;BME280;66064;50.226;14.344;2023-04-01T18:53:41;98260.81;;;9.88;75.75
77112;BME280;66064;50.226;14.344;2023-04-01T18:56:25;98256.44;;;9.80;75.41
77112;BME280;66064;50.226;14.344;2023-04-01T18:58:59;98266.19;;;9.81;75.85
77112;BME280;66064;50.226;14.344;2023-04-01T19:04:47;98268.03;;;9.73;75.86
77112;BME280;66064;50.226;14.344;2023-04-01T19:07:54;98271.56;;;9.71;75.87
77112;BME280;66064;50.226;14.344;2023-04-01T19:15:42;98283.13;;;9.64;76.61
77112;BME280;66064;50.226;14.344;2023-04-01T19:19:34;98279.63;;;9.57;77.13
77112;BME280;66064;50.226;14.344;2023-04-01T19:21:35;98291.09;;;9.61;76.78
77112;BME280;66064;50.226;14.344;2023-04-01T19:36:20;98305.34;;;9.46;78.12
77112;BME280;66064;50.226;14.344;2023-04-01T19:39:00;98297.38;;;9.46;78.16
77112;BME280;66064;50.226;14.344;2023-04-01T19:47:19;98303.59;;;9.46;78.51
77112;BME280;66064;50.226;14.344;2023-04-01T19:50:11;98300.94;;;9.42;78.75
77112;BME280;66064;50.226;14.344;2023-04-01T19:52:42;98308.94;;;9.40;79.04
77112;BME280;66064;50.226;14.344;2023-04-01T20:00:53;98310.72;;;9.34;79.83
77112;BME280;66064;50.226;14.344;2023-04-01T20:03:45;98316.06;;;9.31;79.69
77112;BME280;66064;50.226;14.344;2023-04-01T20:19:45;98333.81;;;9.12;81.10
77112;BME280;66064;50.226;14.344;2023-04-01T20:22:24;98328.50;;;9.20;80.80
77112;BME280;66064;50.226;14.344;2023-04-01T20:24:59;98337.38;;;9.11;81.75
77112;BME280;66064;50.226;14.344;2023-04-01T20:27:32;98332.06;;;9.09;81.85
77112;BME280;66064;50.226;14.344;2023-04-01T20:33:01;98347.09;;;9.12;81.98
77112;BME280;66064;50.226;14.344;2023-04-01T20:35:33;98338.28;;;9.08;82.29
77112;BME280;66064;50.226;14.344;2023-04-01T20:41:20;98350.69;;;9.03;82.22
77112;BME280;66064;50.226;14.344;2023-04-01T20:46:50;98354.22;;;9.02;82.26
77112;BME280;66064;50.226;14.344;2023-04-01T20:49:41;98349.78;;;8.97;83.28
77112;BME280;66064;50.226;14.344;2023-04-01T20:52:32;98356.88;;;8.95;82.89
77112;BME280;66064;50.226;14.344;2023-04-01T21:00:16;98360.44;;;8.89;82.74
77112;BME280;66064;50.226;14.344;2023-04-01T21:03:34;98363.09;;;8.80;83.74
77112;BME280;66064;50.226;14.344;2023-04-01T21:06:57;98367.53;;;8.67;84.35
77112;BME280;66064;50.226;14.344;2023-04-01T21:09:10;98358.69;;;8.62;84.72
77112;BME280;66064;50.226;14.344;2023-04-01T21:11:51;98361.34;;;8.61;85.09
77112;BME280;66064;50.226;14.344;2023-04-01T21:28:27;98376.41;;;8.59;86.12
77112;BME280;66064;50.226;14.344;2023-04-01T21:45:04;98392.31;;;8.42;86.29
77112;BME280;66064;50.226;14.344;2023-04-01T21:51:04;98402.03;;;8.41;86.41
77112;BME280;66064;50.226;14.344;2023-04-01T21:56:43;98398.44;;;8.30;85.84
77112;BME280;66064;50.226;14.344;2023-04-01T22:02:14;98398.44;;;8.21;86.08
77112;BME280;66064;50.226;14.344;2023-04-01T22:05:07;98403.75;;;8.06;86.41
77112;BME280;66064;50.226;14.344;2023-04-01T22:07:47;98405.47;;;8.01;86.68
77112;BME280;66064;50.226;14.344;2023-04-01T22:10:28;98414.31;;;7.97;87.05
77112;BME280;66064;50.226;14.344;2023-04-01T22:16:00;98418.72;;;7.99;87.25
77112;BME280;66064;50.226;14.344;2023-04-01T22:18:33;98407.22;;;7.96;87.67
77112;BME280;66064;50.226;14.344;2023-04-01T22:21:47;98414.31;;;7.91;87.51
77112;BME280;66064;50.226;14.344;2023-04-01T22:24:17;98416.91;;;7.83;87.52
77112;BME280;66064;50.226;14.344;2023-04-01T22:40:42;98439.06;;;8.06;87.66
77112;BME280;66064;50.226;14.344;2023-04-01T22:43:16;98432.88;;;8.12;87.07
77112;BME280;66064;50.226;14.344;2023-04-01T22:46:02;98432.88;;;8.15;87.82
77112;BME280;66064;50.226;14.344;2023-04-01T22:49:36;98434.66;;;8.19;87.78
77112;BME280;66064;50.226;14.344;2023-04-01T22:52:01;98434.69;;;8.31;87.09
77112;BME280;66064;50.226;14.344;2023-04-01T22:57:54;98445.31;;;8.47;86.38
77112;BME280;66064;50.226;14.344;2023-04-01T23:00:32;98439.13;;;8.45;86.11
77112;BME280;66064;50.226;14.344;2023-04-01T23:03:32;98446.22;;;8.43;86.71
77112;BME280;66064;50.226;14.344;2023-04-01T23:06:01;98448.00;;;8.40;86.31
77112;BME280;66064;50.226;14.344;2023-04-01T23:08:46;98452.41;;;8.38;86.55
77112;BME280;66064;50.226;14.344;2023-04-01T23:19:44;98455.94;;;8.34;87.12
77112;BME280;66064;50.226;14.344;2023-04-01T23:23:03;98449.75;;;8.37;86.83
77112;BME280;66064;50.226;14.344;2023-04-01T23:38:23;98470.91;;;8.26;88.05
77112;BME280;66064;50.226;14.344;2023-04-01T23:40:53;98472.66;;;8.21;88.16
77112;BME280;66064;50.226;14.344;2023-04-01T23:43:26;98477.94;;;8.18;87.89
77112;BME280;66064;50.226;14.344;2023-04-01T23:45:55;98477.94;;;8.15;88.33
77112;BME280;66064;50.226;14.344;2023-04-01T23:48:29;98490.31;;;8.10;89.34
77112;BME280;66064;50.226;14.344;2023-04-01T23:50:56;98488.53;;;8.12;89.02
77112;BME280;66064;50.226;14.344;2023-04-01T23:53:25;98491.19;;;8.17;89.72
77112;BME280;66064;50.226;14.344;2023-04-01T23:55:54;98499.16;;;8.21;88.47